Ana Sayfa
METAR-TAF:

METAR-TAF

Havaalanları :

Ouagadougou, Burkina Faso

Enlem: 12-21N, Boylam: 001-31W, yükseklik: 316 m

Güncel hava durumu gözlemi

Rapor saat 05:00 UTC de 45 dakika önce yapıldı.
Rüzgar kuzeydoğudan 4 kt
Sıcaklık 22°C
Nem 38%
Basınç 1013 hPa
Görüş mesafesi: 8000 m

METAR: DFFD 220500Z 04004KT 8000 NSC 22/07 Q1013 NOSIG

Saat: 05:45 (05:45 UTC)

Tahmin

Rapor saat 05:00 UTC de 45 dakika önce yapıldı.
Ayın 22'si saat 06 UTC'den ayın 23'si saat 12 UTC'ye kadar geçerli Tahmin
Rüzgar doğudan 10 kt
Görüş mesafesi: 4000 m
yaygın toz
Geçici
ayın 22'si saat 06 UTC'den ayın 22'si saat 11 UTC'ye kadar
Görüş mesafesi: 2000 m
yaygın toz
Geçici
ayın 22'si saat 16 UTC'den ayın 22'si saat 21 UTC'ye kadar
Görüş mesafesi: 2500 m
yaygın toz

TAF: DFFD 220500Z 2206/2312 08010KT 4000 DU NSC TEMPO 2206/2211 2000 DU TEMPO 2216/2221 2500 DU

4.000'den fazla havaalanı için hava durumu gözlemleri ve tahminleri (METAR ve TAF raporları).

Kullanılabilir istasyonlar harita üzerinde sarı ve kırmızı noktalarla gösterilir.

İstasyonun adını görmek için fareyi noktanın üzerinde gezdirin.

Sonrasında hava gözlem ve tahminlerini görmek için tıklayın.

Haritayı değiştirmek için: yaklaştırmak için siyah artı işaretli yeşil düğmeye ve uzaklaştırmak için de eksi işaretli düğmeye hızla tıklayın; bitişik haritalar için yeşil okları kullanın.


METAR-TAF: